Time;durP1;ratioP1;P1;durP2;ratioP2;P2;SDS_P1;SDS_P2;PMS_P1;PMS_P2;Temp;Humidity;BMP_temperature;BMP_pressure;BME280_temperature;BME280_humidity;BME280_pressure;Samples;Min_cycle;Max_cycle;Signal;HPM_P1;HPM_P2
2023/09/29 00:00:36;;;;;;;15.53;14.13;;;;;;;17.37;79.17;101009.22;5036096;28;20206;-76
2023/09/29 00:03:07;;;;;;;14.90;13.43;;;;;;;17.40;79.98;101013.38;5035934;28;20229;-76
2023/09/29 00:05:36;;;;;;;15.10;13.60;;;;;;;17.46;79.81;101010.75;5035635;28;20251;-77
2023/09/29 00:08:06;;;;;;;15.50;13.90;;;;;;;17.45;79.10;101008.22;5035927;28;20206;-77
2023/09/29 00:10:39;;;;;;;15.17;13.67;;;;;;;17.25;80.92;100999.97;5035622;28;20649;-76
2023/09/29 00:13:09;;;;;;;14.10;12.80;;;;;;;17.27;80.74;100992.50;5035818;28;20191;-76
2023/09/29 00:15:39;;;;;;;14.07;12.53;;;;;;;17.37;80.66;100987.56;5035839;28;20286;-77
2023/09/29 00:18:08;;;;;;;16.77;13.93;;;;;;;17.38;80.71;100994.66;5035825;28;20293;-76
2023/09/29 00:20:36;;;;;;;14.27;12.97;;;;;;;17.40;79.86;100999.84;5035738;28;20264;-76
2023/09/29 00:23:05;;;;;;;17.20;15.27;;;;;;;17.26;80.42;101007.03;5035456;28;20226;-76
2023/09/29 00:25:34;;;;;;;16.73;15.00;;;;;;;17.35;80.75;101011.28;5035707;28;20211;-76
2023/09/29 00:28:02;;;;;;;14.00;12.73;;;;;;;17.33;79.96;101002.50;5034418;28;20202;-76
2023/09/29 00:30:32;;;;;;;14.73;13.23;;;;;;;17.21;79.45;101009.50;5035612;28;20266;-76
2023/09/29 00:33:03;;;;;;;16.07;14.37;;;;;;;17.19;80.45;101012.41;5035146;28;20746;-76
2023/09/29 00:35:33;;;;;;;14.63;13.20;;;;;;;17.16;80.23;101006.56;5035484;28;20187;-76
2023/09/29 00:38:03;;;;;;;16.47;14.70;;;;;;;16.96;81.19;101002.84;5035099;28;20611;-76
2023/09/29 00:40:31;;;;;;;16.33;14.67;;;;;;;16.87;81.95;101006.75;5035340;28;20226;-76
2023/09/29 00:43:00;;;;;;;14.87;13.47;;;;;;;16.89;81.95;101001.97;5035264;28;20213;-76
2023/09/29 00:45:29;;;;;;;15.37;13.87;;;;;;;17.07;80.85;101007.75;5035237;28;20254;-76
2023/09/29 00:48:06;;;;;;;16.40;14.57;;;;;;;17.04;80.14;101013.53;5035246;28;20257;-76
2023/09/29 00:50:37;;;;;;;15.17;13.73;;;;;;;17.04;80.33;101008.13;5034902;28;20723;-75
2023/09/29 00:53:11;;;;;;;15.30;13.80;;;;;;;16.99;79.46;100997.06;5035091;28;20249;-75
2023/09/29 00:55:41;;;;;;;15.33;13.93;;;;;;;16.98;80.52;100992.69;5034761;28;20599;-75
2023/09/29 00:58:12;;;;;;;14.60;13.30;;;;;;;16.95;80.70;100983.09;5035052;28;20191;-76
2023/09/29 01:00:41;;;;;;;16.73;13.53;;;;;;;16.90;81.04;100980.16;5034987;28;20206;-76
2023/09/29 01:03:15;;;;;;;15.10;13.63;;;;;;;16.81;81.63;100975.06;5034894;28;20206;-76
2023/09/29 01:05:46;;;;;;;15.23;13.70;;;;;;;16.92;80.91;100974.56;5034561;28;20576;-76
2023/09/29 01:08:17;;;;;;;16.57;15.00;;;;;;;16.95;81.11;100966.84;5034664;28;20707;-76
2023/09/29 01:10:46;;;;;;;18.23;16.37;;;;;;;16.95;80.31;100966.03;5034811;28;20273;-76
2023/09/29 01:13:15;;;;;;;17.03;15.63;;;;;;;16.87;81.03;100961.59;5034485;28;20226;-76
2023/09/29 01:15:44;;;;;;;17.70;16.10;;;;;;;16.81;81.09;100977.78;5034355;28;20301;-76
2023/09/29 01:18:16;;;;;;;18.83;17.03;;;;;;;16.82;81.42;100982.13;5034642;28;20213;-76
2023/09/29 01:20:45;;;;;;;17.63;15.70;;;;;;;16.66;82.30;100972.44;5034646;28;20237;-76
2023/09/29 01:23:14;;;;;;;15.80;14.33;;;;;;;16.70;82.70;100968.31;5034256;28;20273;-76
2023/09/29 01:25:44;;;;;;;18.57;16.60;;;;;;;16.67;82.11;100968.72;5034166;28;20575;-75
2023/09/29 01:28:13;;;;;;;18.07;16.27;;;;;;;16.60;83.72;100968.66;5034431;28;20302;-75
2023/09/29 01:30:42;;;;;;;18.30;16.50;;;;;;;16.62;82.24;100974.69;5034426;28;20214;-76
2023/09/29 01:33:12;;;;;;;18.43;16.53;;;;;;;16.61;83.13;100966.78;5034268;28;20230;-76
2023/09/29 01:35:43;;;;;;;17.73;15.93;;;;;;;16.58;82.24;100972.56;5033986;28;20583;-76
2023/09/29 01:38:13;;;;;;;16.13;14.57;;;;;;;16.64;82.58;100971.81;5034123;28;20202;-76
2023/09/29 01:40:44;;;;;;;17.53;15.73;;;;;;;16.60;81.63;100974.06;5034027;28;20676;-75
2023/09/29 01:43:18;;;;;;;17.50;15.83;;;;;;;16.59;82.79;100976.94;5035269;28;20222;-75
2023/09/29 01:45:47;;;;;;;17.53;15.60;;;;;;;16.57;83.09;100979.88;5034999;28;20578;-75
2023/09/29 01:48:15;;;;;;;16.27;14.67;;;;;;;16.55;83.60;100965.69;5034291;28;20698;-75
2023/09/29 01:50:44;;;;;;;16.90;15.40;;;;;;;16.62;83.44;100977.41;5042358;28;20265;-75
2023/09/29 01:53:12;;;;;;;16.57;15.03;;;;;;;16.67;82.94;100974.97;5054900;28;20290;-75
2023/09/29 01:55:41;;;;;;;17.93;15.93;;;;;;;16.69;83.01;100978.28;5056345;28;20211;-74
2023/09/29 01:58:10;;;;;;;17.67;15.97;;;;;;;16.72;82.89;100972.50;5054196;28;20290;-74
2023/09/29 02:00:40;;;;;;;17.83;16.17;;;;;;;16.69;82.70;100977.47;5046859;28;20195;-75
2023/09/29 02:03:08;;;;;;;17.67;15.97;;;;;;;16.67;82.92;100983.06;5040464;28;20258;-75
2023/09/29 02:05:37;;;;;;;19.30;17.53;;;;;;;16.62;82.88;100980.09;5053987;28;20207;-75
2023/09/29 02:08:07;;;;;;;18.27;16.77;;;;;;;16.67;83.99;100980.38;5034862;28;20277;-76
2023/09/29 02:10:35;;;;;;;20.13;18.17;;;;;;;16.62;84.09;100977.41;5033834;28;20290;-76
2023/09/29 02:13:05;;;;;;;19.03;17.33;;;;;;;16.57;84.72;100979.03;5033659;28;20246;-76
2023/09/29 02:15:35;;;;;;;20.77;18.67;;;;;;;16.58;84.65;100976.09;5033731;28;20203;-76
2023/09/29 02:18:05;;;;;;;20.37;18.50;;;;;;;16.58;84.65;100976.09;5033638;28;20293;-76
2023/09/29 02:20:41;;;;;;;22.03;19.73;;;;;;;16.54;84.68;100969.38;5033607;28;20190;-77
2023/09/29 02:23:09;;;;;;;22.03;19.80;;;;;;;16.48;85.86;100964.75;5033368;28;20210;-75
2023/09/29 02:25:38;;;;;;;22.03;20.03;;;;;;;16.48;85.96;100969.31;5033449;28;20187;-76
2023/09/29 02:28:09;;;;;;;21.57;19.57;;;;;;;16.51;85.68;100969.75;5033320;28;20227;-76
2023/09/29 02:30:38;;;;;;;22.40;20.27;;;;;;;16.51;85.06;100969.75;5033498;28;20282;-75
2023/09/29 02:33:08;;;;;;;21.57;19.60;;;;;;;16.50;85.84;100962.72;5033320;28;20217;-76
2023/09/29 02:35:36;;;;;;;21.63;19.73;;;;;;;16.50;85.93;100968.13;5033037;28;20265;-76
2023/09/29 02:38:05;;;;;;;22.17;20.07;;;;;;;16.50;86.51;100962.72;5033377;28;20206;-75
2023/09/29 02:40:34;;;;;;;22.17;20.07;;;;;;;16.49;85.97;100960.19;5033547;28;20732;-75
2023/09/29 02:43:02;;;;;;;21.63;19.60;;;;;;;16.52;87.22;100957.94;5032555;28;20648;-75
2023/09/29 02:45:31;;;;;;;20.40;18.30;;;;;;;16.53;89.58;100967.72;5032403;28;20302;-75
2023/09/29 02:48:00;;;;;;;19.83;18.10;;;;;;;16.55;89.70;100962.09;5033501;28;20241;-75
2023/09/29 02:50:34;;;;;;;19.23;17.27;;;;;;;16.59;90.85;100955.31;5033597;28;20253;-75
2023/09/29 02:53:05;;;;;;;16.97;15.47;;;;;;;16.62;90.02;100950.38;5037348;28;20201;-75
2023/09/29 02:55:34;;;;;;;19.17;17.00;;;;;;;16.68;90.17;100944.16;5037348;28;20297;-74
2023/09/29 02:58:04;;;;;;;16.77;15.17;;;;;;;16.71;90.78;100948.38;5037298;28;20257;-74
2023/09/29 03:00:32;;;;;;;16.63;15.03;;;;;;;16.73;90.58;100949.84;5037214;28;20246;-75
2023/09/29 03:03:03;;;;;;;17.63;14.20;;;;;;;16.78;90.15;100959.25;5037082;28;20293;-75
2023/09/29 03:05:33;;;;;;;15.77;14.37;;;;;;;16.79;89.89;100952.78;5036894;28;20191;-74
2023/09/29 03:08:03;;;;;;;16.97;15.17;;;;;;;16.80;89.79;100954.47;5036785;28;20211;-75
2023/09/29 03:10:32;;;;;;;15.97;13.57;;;;;;;16.81;89.99;100950.75;5037092;28;20252;-75
2023/09/29 03:13:00;;;;;;;16.07;14.37;;;;;;;16.81;90.76;100954.28;5036962;28;20229;-75
2023/09/29 03:15:29;;;;;;;15.57;13.53;;;;;;;16.83;90.46;100951.38;5036693;28;20739;-75
2023/09/29 03:18:00;;;;;;;15.23;13.73;;;;;;;16.83;90.23;100954.91;5036890;28;20207;-75
2023/09/29 03:20:29;;;;;;;14.70;13.30;;;;;;;16.84;90.96;100953.06;5037676;28;20540;-75
2023/09/29 03:23:04;;;;;;;14.93;13.47;;;;;;;16.84;90.63;100958.47;5036581;28;20215;-75
2023/09/29 03:25:33;;;;;;;15.40;13.20;;;;;;;16.84;90.39;100958.47;5036824;28;20641;-75
2023/09/29 03:28:04;;;;;;;15.00;13.43;;;;;;;16.84;90.91;100955.75;5036340;28;20318;-75
2023/09/29 03:30:33;;;;;;;14.20;12.67;;;;;;;16.87;90.77;100955.34;5036465;28;20241;-75
2023/09/29 03:33:01;;;;;;;14.20;12.87;;;;;;;16.85;90.41;100950.13;5036549;28;20206;-75
2023/09/29 03:35:30;;;;;;;14.10;12.60;;;;;;;16.87;90.04;100942.69;5036589;28;20203;-74
2023/09/29 03:38:04;;;;;;;13.93;12.43;;;;;;;16.89;90.32;100939.75;5036540;28;20602;-74
2023/09/29 03:40:33;;;;;;;13.03;11.73;;;;;;;16.89;90.38;100934.34;5036220;28;20679;-74
2023/09/29 03:43:03;;;;;;;14.30;11.80;;;;;;;16.88;90.89;100936.25;5036085;28;20688;-74
2023/09/29 03:45:33;;;;;;;12.27;11.13;;;;;;;16.90;90.70;100941.44;5036381;28;20207;-74
2023/09/29 03:48:03;;;;;;;16.20;12.00;;;;;;;16.90;90.27;100946.84;5036170;28;20227;-75
2023/09/29 03:50:32;;;;;;;12.73;11.50;;;;;;;16.89;90.68;100946.00;5036251;28;20298;-75
2023/09/29 03:53:02;;;;;;;12.90;11.53;;;;;;;16.91;90.20;100953.94;5035773;28;20619;-75
2023/09/29 03:55:31;;;;;;;11.73;10.63;;;;;;;16.91;90.12;100952.06;5036142;28;20301;-75
2023/09/29 03:57:59;;;;;;;14.23;11.30;;;;;;;16.93;90.64;100941.03;5036161;28;20203;-75
2023/09/29 04:00:30;;;;;;;13.03;11.10;;;;;;;16.94;89.83;100948.13;5036144;28;20582;-66
2023/09/29 04:02:58;;;;;;;17.63;11.90;;;;;;;16.93;90.08;100949.16;5035752;28;20210;-74
2023/09/29 04:05:27;;;;;;;13.13;11.23;;;;;;;16.93;90.03;100946.44;5035993;28;20218;-74
2023/09/29 04:07:56;;;;;;;14.50;11.73;;;;;;;16.91;90.34;100949.38;5035937;28;20241;-75
2023/09/29 04:10:26;;;;;;;15.47;11.17;;;;;;;16.91;90.32;100943.13;5035892;28;20677;-75
2023/09/29 04:12:54;;;;;;;12.90;11.30;;;;;;;16.91;90.30;100951.25;5035525;28;20700;-75
2023/09/29 04:15:25;;;;;;;13.03;10.90;;;;;;;16.92;89.88;100945.63;5035770;28;20297;-75
2023/09/29 04:17:53;;;;;;;12.97;10.70;;;;;;;16.93;89.95;100941.03;5036060;28;20256;-75
2023/09/29 04:20:22;;;;;;;13.00;10.60;;;;;;;16.93;90.03;100947.28;5035719;28;20288;-75
2023/09/29 04:22:50;;;;;;;15.43;10.80;;;;;;;16.94;90.32;100945.44;5035550;28;20246;-74
2023/09/29 04:25:19;;;;;;;10.37;9.33;;;;;;;16.94;89.77;100948.13;5035676;28;20270;-74
2023/09/29 04:27:50;;;;;;;11.50;10.33;;;;;;;16.96;89.42;100943.34;5035468;28;20314;-75
2023/09/29 04:30:18;;;;;;;13.00;10.07;;;;;;;16.94;90.22;100940.03;5035611;28;20561;-75
2023/09/29 04:32:47;;;;;;;12.33;9.80;;;;;;;16.92;90.25;100945.63;5035188;28;20752;-75
2023/09/29 04:35:16;;;;;;;10.97;9.83;;;;;;;16.93;90.43;100941.03;5035401;28;20249;-76
2023/09/29 04:37:45;;;;;;;11.57;9.13;;;;;;;16.94;89.47;100942.72;5035121;28;20290;-74
2023/09/29 04:40:14;;;;;;;12.17;9.93;;;;;;;16.95;89.22;100949.81;5035354;28;20213;-75
2023/09/29 04:42:42;;;;;;;13.27;9.43;;;;;;;16.96;89.22;100951.47;5035248;28;20213;-75
2023/09/29 04:45:12;;;;;;;12.40;9.03;;;;;;;16.96;89.52;100943.34;5035630;28;20226;-75
2023/09/29 04:47:41;;;;;;;10.17;8.97;;;;;;;16.97;88.73;100936.91;5035518;28;20230;-75
2023/09/29 04:50:14;;;;;;;9.83;8.30;;;;;;;16.97;89.45;100926.09;5035757;28;20207;-74
2023/09/29 04:52:42;;;;;;;9.43;7.93;;;;;;;16.99;88.59;100937.53;5035067;28;20658;-74
2023/09/29 04:55:11;;;;;;;10.00;8.10;;;;;;;16.97;89.25;100935.06;5035212;28;20237;-74
2023/09/29 04:57:39;;;;;;;10.13;7.73;;;;;;;16.97;89.38;100929.66;5035033;28;20238;-75
2023/09/29 05:00:09;;;;;;;10.93;7.77;;;;;;;16.98;89.19;100938.59;5034971;28;20289;-75
2023/09/29 05:02:39;;;;;;;9.03;8.13;;;;;;;16.97;88.96;100934.22;5034893;28;20213;-75
2023/09/29 05:05:09;;;;;;;9.43;8.13;;;;;;;16.96;88.36;100935.25;5034452;28;20705;-75
2023/09/29 05:07:37;;;;;;;11.93;8.97;;;;;;;16.96;88.70;100937.94;5034692;28;20209;-75
2023/09/29 05:10:07;;;;;;;9.80;8.10;;;;;;;16.95;89.35;100945.22;5034799;28;20218;-76
2023/09/29 05:12:35;;;;;;;9.10;8.30;;;;;;;16.94;89.16;100932.75;5034386;28;20570;-76
2023/09/29 05:15:04;;;;;;;11.43;9.73;;;;;;;16.95;88.48;100925.47;5034072;28;20258;-75
2023/09/29 05:17:33;;;;;;;10.97;9.73;;;;;;;16.93;88.59;100932.94;5034313;28;20700;-75
2023/09/29 05:20:20;;;;;;;11.77;9.87;;;;;;;16.93;88.45;100931.06;5034643;28;20191;-75
2023/09/29 05:22:49;;;;;;;9.57;8.67;;;;;;;16.92;88.92;100920.47;5034139;28;20677;-75
2023/09/29 05:25:17;;;;;;;10.47;9.47;;;;;;;16.92;88.62;100921.28;5034500;28;20198;-76
2023/09/29 05:27:45;;;;;;;11.80;9.17;;;;;;;16.92;88.79;100923.16;5034373;28;20207;-76
2023/09/29 05:30:14;;;;;;;10.73;9.63;;;;;;;16.92;88.58;100917.75;5034128;28;20687;-76
2023/09/29 05:32:42;;;;;;;9.87;8.93;;;;;;;16.91;88.49;100918.78;5034318;28;20264;-76
2023/09/29 05:35:11;;;;;;;12.83;10.97;;;;;;;16.90;89.07;100919.81;5034188;28;20306;-75
2023/09/29 05:37:41;;;;;;;14.87;9.67;;;;;;;16.88;88.46;100922.72;5034131;28;20213;-75
2023/09/29 05:40:11;;;;;;;12.20;9.63;;;;;;;16.90;88.80;100922.50;5033916;28;20651;-75
2023/09/29 05:42:39;;;;;;;11.87;9.73;;;;;;;16.90;88.68;100919.81;5034096;28;20211;-75
2023/09/29 05:45:20;;;;;;;10.90;9.40;;;;;;;16.90;88.51;100909.00;5033830;28;20660;-76
2023/09/29 05:47:51;;;;;;;9.73;8.73;;;;;;;16.91;88.70;100916.06;5034043;28;20203;-76
2023/09/29 05:50:21;;;;;;;11.67;8.70;;;;;;;16.91;88.63;100926.91;5033750;28;20652;-76
2023/09/29 05:52:51;;;;;;;10.73;8.50;;;;;;;16.92;89.03;100923.16;5033669;28;20219;-76
2023/09/29 05:55:37;;;;;;;9.87;7.77;;;;;;;16.92;88.80;100928.56;5034008;28;20270;-76
2023/09/29 05:58:06;;;;;;;10.63;8.43;;;;;;;16.92;89.22;100923.16;5033950;28;20203;-76
2023/09/29 06:00:34;;;;;;;9.10;7.63;;;;;;;16.92;89.31;100917.75;5033919;28;20206;-75
2023/09/29 06:03:03;;;;;;;8.87;7.47;;;;;;;16.91;89.06;100930.44;5033743;28;20210;-75
2023/09/29 06:05:32;;;;;;;9.77;7.20;;;;;;;16.92;89.09;100917.75;5033819;28;20214;-75
2023/09/29 06:08:02;;;;;;;9.07;7.30;;;;;;;16.93;89.71;100925.66;5033795;28;20217;-75
2023/09/29 06:10:30;;;;;;;8.57;7.23;;;;;;;16.93;89.68;100930.22;5033695;28;20294;-75
2023/09/29 06:12:59;;;;;;;8.57;7.17;;;;;;;16.93;89.70;100914.84;5033687;28;20586;-75
2023/09/29 06:15:32;;;;;;;8.93;7.13;;;;;;;16.94;89.18;100912.97;5033683;28;20195;-76
2023/09/29 06:18:01;;;;;;;8.07;6.67;;;;;;;16.95;89.39;100925.47;5033306;28;20747;-75
2023/09/29 06:20:29;;;;;;;7.70;6.63;;;;;;;16.96;90.11;100935.25;5033588;28;20306;-76
2023/09/29 06:22:58;;;;;;;10.67;6.80;;;;;;;16.96;90.70;100940.66;5033038;28;20613;-76
2023/09/29 06:25:28;;;;;;;9.77;6.30;;;;;;;16.95;89.86;100949.81;5033490;28;20195;-76
2023/09/29 06:27:56;;;;;;;8.20;6.73;;;;;;;16.95;89.95;100944.41;5033496;28;20261;-76
2023/09/29 06:30:25;;;;;;;8.03;6.70;;;;;;;16.97;90.30;100942.31;5033352;28;20317;-76
2023/09/29 06:32:53;;;;;;;7.43;6.50;;;;;;;16.97;90.28;100931.50;5033378;28;20585;-76
2023/09/29 06:35:22;;;;;;;7.83;6.40;;;;;;;16.97;90.28;100936.91;5033408;28;20245;-76
2023/09/29 06:37:51;;;;;;;8.20;6.87;;;;;;;16.98;90.15;100933.19;5033481;28;20216;-76
2023/09/29 06:40:19;;;;;;;12.30;6.80;;;;;;;16.99;89.97;100943.78;5033069;28;20618;-76
2023/09/29 06:42:49;;;;;;;9.90;6.63;;;;;;;16.99;90.14;100949.19;5033014;28;20635;-75
2023/09/29 06:45:18;;;;;;;11.90;6.80;;;;;;;17.01;90.52;100960.69;5033310;28;20207;-75
2023/09/29 06:47:46;;;;;;;7.63;6.60;;;;;;;17.02;90.98;100956.13;5032995;28;20685;-75
2023/09/29 06:50:15;;;;;;;9.37;6.57;;;;;;;17.01;90.46;100962.53;5033238;28;20232;-75
2023/09/29 06:52:43;;;;;;;10.43;6.30;;;;;;;17.02;90.74;100956.13;5033255;28;20241;-75
2023/09/29 06:55:13;;;;;;;7.47;5.70;;;;;;;17.03;90.24;100950.50;5033191;28;20657;-76
2023/09/29 06:57:42;;;;;;;7.73;6.27;;;;;;;17.04;91.01;100940.50;5033240;28;20293;-76
2023/09/29 07:00:13;;;;;;;11.97;6.80;;;;;;;17.05;90.70;100940.31;5033189;28;20312;-76
2023/09/29 07:02:42;;;;;;;10.83;6.40;;;;;;;17.08;90.41;100941.78;5033215;28;20195;-75
2023/09/29 07:05:11;;;;;;;8.77;6.20;;;;;;;17.08;90.20;100945.34;5032694;28;20590;-74
2023/09/29 07:07:40;;;;;;;8.73;6.20;;;;;;;17.10;90.88;100942.41;5032730;28;20653;-74
2023/09/29 07:10:10;;;;;;;7.23;6.13;;;;;;;17.12;91.05;100940.38;5032694;28;20292;-74
2023/09/29 07:12:38;;;;;;;7.23;6.27;;;;;;;17.11;90.21;100936.81;5032717;28;20646;-75
2023/09/29 07:15:08;;;;;;;7.60;6.17;;;;;;;17.12;90.26;100937.66;5032718;28;20261;-76
2023/09/29 07:17:38;;;;;;;7.03;6.30;;;;;;;17.16;90.50;100930.78;5033060;28;20203;-76
2023/09/29 07:20:08;;;;;;;9.60;6.60;;;;;;;17.17;91.10;100929.78;5032970;28;20202;-75
2023/09/29 07:22:36;;;;;;;10.53;5.90;;;;;;;17.19;90.49;100936.66;5032964;28;20285;-75
2023/09/29 07:25:06;;;;;;;8.00;6.17;;;;;;;17.21;90.71;100928.34;5032549;28;20325;-75
2023/09/29 07:27:36;;;;;;;9.13;6.10;;;;;;;17.23;91.71;100927.09;5032899;28;20206;-75
2023/09/29 07:30:05;;;;;;;8.27;6.47;;;;;;;17.24;91.54;100919.81;5032815;28;20326;-75
2023/09/29 07:32:34;;;;;;;9.87;6.27;;;;;;;17.26;91.68;100925.88;5033414;28;20206;-75
2023/09/29 07:35:07;;;;;;;6.70;6.00;;;;;;;17.28;91.43;100929.22;5032803;28;20226;-75
2023/09/29 07:37:35;;;;;;;7.13;6.47;;;;;;;17.29;91.14;100922.78;5034543;28;20566;-75
2023/09/29 07:40:05;;;;;;;8.23;6.20;;;;;;;17.33;91.72;100925.94;5036368;28;20207;-75
2023/09/29 07:42:33;;;;;;;9.00;6.23;;;;;;;17.35;91.93;100927.41;5036596;28;20249;-75
2023/09/29 07:45:03;;;;;;;7.33;6.17;;;;;;;17.35;91.44;100927.41;5036510;28;20314;-75
2023/09/29 07:47:32;;;;;;;8.47;6.47;;;;;;;17.38;91.55;100934.28;5036167;28;20692;-75
2023/09/29 07:50:00;;;;;;;10.77;6.63;;;;;;;17.40;91.81;100940.31;5036588;28;20230;-74
2023/09/29 07:52:30;;;;;;;7.53;5.70;;;;;;;17.40;91.83;100949.25;5036486;28;20237;-74
2023/09/29 07:54:58;;;;;;;8.33;6.23;;;;;;;17.43;92.52;100954.28;5036194;28;20258;-75
2023/09/29 07:57:27;;;;;;;9.67;6.90;;;;;;;17.43;92.46;100948.06;5036264;28;20203;-75
2023/09/29 07:59:55;;;;;;;9.90;6.47;;;;;;;17.44;92.98;100958.66;5036140;28;20241;-75
2023/09/29 08:02:24;;;;;;;7.63;6.93;;;;;;;17.45;92.83;100940.56;5036065;28;20211;-75
2023/09/29 08:04:53;;;;;;;8.90;6.10;;;;;;;17.46;93.56;100942.22;5035999;28;20237;-75
2023/09/29 08:07:22;;;;;;;9.80;5.90;;;;;;;17.46;92.80;100943.06;5036006;28;20245;-75
2023/09/29 08:09:53;;;;;;;9.40;6.83;;;;;;;17.48;93.53;100943.69;5035870;28;20226;-76
2023/09/29 08:12:21;;;;;;;11.00;7.50;;;;;;;17.50;93.69;100949.72;5035948;28;20260;-76
2023/09/29 08:14:50;;;;;;;9.30;6.63;;;;;;;17.52;93.65;100936.00;5035507;28;20720;-74
2023/09/29 08:17:19;;;;;;;10.27;7.27;;;;;;;17.53;94.06;100934.97;5035498;28;20298;-74
2023/09/29 08:19:48;;;;;;;10.33;7.70;;;;;;;17.55;94.10;100935.59;5035472;28;20668;-75
2023/09/29 08:22:16;;;;;;;10.60;7.50;;;;;;;17.56;93.84;100938.16;5035444;28;20206;-75
2023/09/29 08:25:03;;;;;;;11.27;7.70;;;;;;;17.57;94.22;100945.22;5035690;28;20235;-74
2023/09/29 08:27:31;;;;;;;10.40;7.67;;;;;;;17.59;94.65;100937.75;5035640;28;20187;-74
2023/09/29 08:30:01;;;;;;;8.30;6.90;;;;;;;17.61;94.56;100935.66;5035203;28;20653;-74
2023/09/29 08:32:30;;;;;;;9.40;7.43;;;;;;;17.63;94.28;100938.19;5035169;28;20260;-74
2023/09/29 08:34:58;;;;;;;7.27;6.57;;;;;;;17.65;94.22;100942.34;5035429;28;20231;-74
2023/09/29 08:37:27;;;;;;;8.17;7.03;;;;;;;17.68;94.70;100941.94;5035456;28;20257;-74
2023/09/29 08:39:55;;;;;;;9.70;6.63;;;;;;;17.70;94.48;100934.47;5035341;28;20293;-74
2023/09/29 08:42:36;;;;;;;8.57;6.90;;;;;;;17.75;94.67;100939.28;5035210;28;20305;-74
2023/09/29 08:45:08;;;;;;;7.13;6.43;;;;;;;17.78;93.69;100935.31;5035292;28;20229;-74
2023/09/29 08:47:38;;;;;;;10.93;6.73;;;;;;;17.81;93.80;100933.03;5034848;28;20191;-74
2023/09/29 08:50:09;;;;;;;9.30;6.43;;;;;;;17.84;93.18;100937.22;5035128;28;20227;-74
2023/09/29 08:52:44;;;;;;;7.67;6.87;;;;;;;17.87;92.98;100934.13;5034862;28;20187;-74
2023/09/29 08:55:14;;;;;;;10.33;7.13;;;;;;;17.91;92.65;100932.69;5034765;28;20655;-75
2023/09/29 08:57:45;;;;;;;8.30;6.50;;;;;;;17.92;93.00;100931.63;5035094;28;20239;-75
2023/09/29 09:00:14;;;;;;;7.10;6.40;;;;;;;17.95;92.30;100915.78;5034710;28;20195;-75
2023/09/29 09:02:44;;;;;;;9.13;6.83;;;;;;;17.97;92.12;100924.56;5034922;28;20207;-75
2023/09/29 09:05:14;;;;;;;11.77;6.67;;;;;;;18.01;91.60;100914.16;5034941;28;20304;-76
2023/09/29 09:07:44;;;;;;;8.87;6.53;;;;;;;18.04;92.04;100920.00;5034881;28;20198;-76
2023/09/29 09:10:13;;;;;;;7.97;6.57;;;;;;;18.08;90.85;100917.72;5034424;28;20704;-76
2023/09/29 09:13:02;;;;;;;6.87;5.93;;;;;;;18.11;91.15;100918.16;5034677;28;20199;-75
2023/09/29 09:15:31;;;;;;;9.33;6.87;;;;;;;18.17;91.35;100908.34;5034766;28;20195;-76
2023/09/29 09:18:00;;;;;;;6.47;5.83;;;;;;;18.22;91.09;100905.84;5034719;28;20218;-76
2023/09/29 09:20:30;;;;;;;7.00;6.30;;;;;;;18.27;90.49;100903.38;5034590;28;20206;-76
2023/09/29 09:22:59;;;;;;;8.60;6.43;;;;;;;18.30;90.63;100902.94;5034314;28;20210;-75
2023/09/29 09:25:36;;;;;;;7.23;6.47;;;;;;;18.33;90.42;100902.53;5034244;28;20202;-75
2023/09/29 09:28:14;;;;;;;8.47;6.30;;;;;;;18.37;90.05;100903.78;5034183;28;20692;-75
2023/09/29 09:30:43;;;;;;;7.20;6.50;;;;;;;18.41;90.09;100910.47;5034375;28;20302;-76
2023/09/29 09:33:21;;;;;;;11.27;6.33;;;;;;;18.45;90.21;100906.31;5034224;28;20215;-75
2023/09/29 09:35:51;;;;;;;9.93;6.20;;;;;;;18.50;89.65;100909.25;5034365;28;20234;-75
2023/09/29 09:38:20;;;;;;;8.50;6.40;;;;;;;18.52;89.82;100901.75;5034268;28;20261;-75
2023/09/29 09:40:50;;;;;;;8.00;6.23;;;;;;;18.54;89.45;100898.84;5034251;28;20241;-75
2023/09/29 09:43:21;;;;;;;6.80;6.10;;;;;;;18.58;88.69;100900.09;5034177;28;20284;-75
2023/09/29 09:45:53;;;;;;;7.27;5.70;;;;;;;18.60;88.73;100906.97;5034207;28;20218;-75
2023/09/29 09:48:24;;;;;;;6.93;5.77;;;;;;;18.64;88.09;100899.25;5034125;28;20245;-75
2023/09/29 09:50:57;;;;;;;8.93;5.70;;;;;;;18.67;87.33;100886.09;5034066;28;20298;-75
2023/09/29 09:53:28;;;;;;;6.97;5.60;;;;;;;18.72;87.97;100891.75;5033992;28;20227;-75
2023/09/29 09:56:01;;;;;;;6.73;5.40;;;;;;;18.77;87.42;100887.56;5034023;28;20214;-75
2023/09/29 09:58:32;;;;;;;6.73;5.50;;;;;;;18.83;86.95;100897.59;5033948;28;20201;-75
2023/09/29 10:01:00;;;;;;;7.97;5.40;;;;;;;18.86;87.76;100889.84;5033725;28;20203;-75
2023/09/29 10:03:31;;;;;;;5.97;5.37;;;;;;;18.89;87.73;100880.47;5033809;28;20643;-75
2023/09/29 10:06:00;;;;;;;8.17;5.13;;;;;;;18.94;87.92;100883.38;5033517;28;20584;-75
2023/09/29 10:08:30;;;;;;;5.90;5.20;;;;;;;19.00;87.41;100879.81;5033764;28;20214;-75
2023/09/29 10:11:14;;;;;;;7.00;5.20;;;;;;;19.05;86.47;100874.56;5033782;28;20306;-75
2023/09/29 10:13:47;;;;;;;9.17;5.70;;;;;;;19.09;86.79;100881.25;5033336;28;20223;-75
2023/09/29 10:16:22;;;;;;;6.33;5.10;;;;;;;19.19;84.52;100881.63;5033711;28;20257;-75
2023/09/29 10:18:59;;;;;;;7.03;5.20;;;;;;;19.22;84.91;100873.91;5033349;28;20921;-75
2023/09/29 10:21:33;;;;;;;7.67;5.30;;;;;;;19.24;84.42;100868.28;5033308;28;20197;-75
2023/09/29 10:24:05;;;;;;;7.23;5.20;;;;;;;19.29;83.46;100876.59;5033234;28;20238;-75
2023/09/29 10:26:42;;;;;;;6.27;4.77;;;;;;;19.34;83.86;100867.81;5033613;28;20187;-76
2023/09/29 10:29:19;;;;;;;6.03;5.30;;;;;;;19.38;84.01;100875.34;5033585;28;20197;-76
2023/09/29 10:31:49;;;;;;;6.53;5.23;;;;;;;19.42;83.81;100870.34;5033684;28;20263;-75
2023/09/29 10:34:22;;;;;;;5.97;4.53;;;;;;;19.48;82.88;100864.03;5033744;28;20232;-75
2023/09/29 10:36:55;;;;;;;5.87;4.60;;;;;;;19.56;82.00;100878.19;5033629;28;20575;-75
2023/09/29 10:39:26;;;;;;;7.67;5.13;;;;;;;19.73;80.89;100870.38;5034268;28;20190;-75
2023/09/29 10:42:12;;;;;;;7.83;5.20;;;;;;;19.76;80.53;100871.84;5033981;28;20199;-75
2023/09/29 10:44:46;;;;;;;6.70;4.90;;;;;;;19.93;79.56;100883.88;5033489;28;20227;-75
2023/09/29 10:47:16;;;;;;;6.80;4.77;;;;;;;19.94;79.64;100878.22;5033538;28;20274;-75
2023/09/29 10:49:47;;;;;;;7.50;4.77;;;;;;;20.28;77.28;100876.13;5033312;28;20198;-75
2023/09/29 10:52:19;;;;;;;8.50;4.80;;;;;;;20.62;75.82;100879.22;5033247;28;20233;-77
2023/09/29 10:54:48;;;;;;;7.03;4.60;;;;;;;20.86;74.52;100873.97;5033209;28;20265;-75
2023/09/29 10:57:20;;;;;;;7.63;4.77;;;;;;;20.95;73.37;100873.47;5033221;28;20210;-75
2023/09/29 10:59:52;;;;;;;6.20;5.00;;;;;;;21.04;74.31;100865.84;5032960;28;20567;-75
2023/09/29 11:02:21;;;;;;;6.40;4.50;;;;;;;21.07;73.12;100865.38;5033268;28;20190;-76
2023/09/29 11:04:49;;;;;;;6.27;4.27;;;;;;;21.04;72.93;100863.13;5033135;28;20233;-75
2023/09/29 11:07:18;;;;;;;10.20;4.37;;;;;;;21.04;74.63;100855.78;5033030;28;20692;-76
2023/09/29 11:09:48;;;;;;;5.90;4.60;;;;;;;21.06;72.78;100866.47;5033142;28;20202;-76
2023/09/29 11:12:19;;;;;;;7.90;4.73;;;;;;;20.99;74.28;100863.81;5034307;28;20731;-76
2023/09/29 11:14:47;;;;;;;6.33;4.30;;;;;;;20.92;75.59;100867.66;5037082;28;20222;-76
2023/09/29 11:17:19;;;;;;;7.23;4.50;;;;;;;20.94;75.76;100855.47;5036711;28;20699;-76
2023/09/29 11:19:55;;;;;;;11.70;6.00;;;;;;;21.08;74.69;100853.44;5036687;28;20622;-76
2023/09/29 11:22:25;;;;;;;7.83;4.80;;;;;;;21.07;75.71;100849.88;5036829;28;20289;-76
2023/09/29 11:24:54;;;;;;;5.70;4.70;;;;;;;21.14;75.42;100841.66;5036368;28;20325;-75
2023/09/29 11:27:25;;;;;;;6.17;4.50;;;;;;;21.17;74.87;100844.78;5036774;28;20214;-74
2023/09/29 11:29:54;;;;;;;5.40;4.20;;;;;;;21.35;74.74;100835.75;5036744;28;20542;-74